sensor_id;sensor_type;location;lat;lon;timestamp;P1;durP1;ratioP1;P2;durP2;ratioP2
79747;SDS011;69232;47.488;19.268;2023-05-07T00:01:53;19.42;;;9.90;;
79747;SDS011;69232;47.488;19.268;2023-05-07T00:04:19;15.30;;;9.25;;
79747;SDS011;69232;47.488;19.268;2023-05-07T00:06:48;14.05;;;9.73;;
79747;SDS011;69232;47.488;19.268;2023-05-07T00:09:14;15.55;;;9.48;;
79747;SDS011;69232;47.488;19.268;2023-05-07T00:11:41;14.20;;;9.90;;
79747;SDS011;69232;47.488;19.268;2023-05-07T00:14:06;18.58;;;11.00;;
79747;SDS011;69232;47.488;19.268;2023-05-07T00:16:32;14.73;;;10.13;;
79747;SDS011;69232;47.488;19.268;2023-05-07T00:19:16;16.73;;;10.05;;
79747;SDS011;69232;47.488;19.268;2023-05-07T00:21:41;17.63;;;9.77;;
79747;SDS011;69232;47.488;19.268;2023-05-07T00:24:06;15.18;;;9.75;;
79747;SDS011;69232;47.488;19.268;2023-05-07T00:26:32;19.42;;;10.57;;
79747;SDS011;69232;47.488;19.268;2023-05-07T00:28:57;18.75;;;10.50;;
79747;SDS011;69232;47.488;19.268;2023-05-07T00:31:23;15.90;;;9.57;;
79747;SDS011;69232;47.488;19.268;2023-05-07T00:33:48;18.00;;;10.80;;
79747;SDS011;69232;47.488;19.268;2023-05-07T00:36:13;15.43;;;10.13;;
79747;SDS011;69232;47.488;19.268;2023-05-07T00:38:39;20.63;;;9.98;;
79747;SDS011;69232;47.488;19.268;2023-05-07T00:41:04;15.90;;;9.82;;
79747;SDS011;69232;47.488;19.268;2023-05-07T00:43:30;14.95;;;9.13;;
79747;SDS011;69232;47.488;19.268;2023-05-07T00:45:57;15.55;;;9.68;;
79747;SDS011;69232;47.488;19.268;2023-05-07T00:48:22;16.30;;;9.23;;
79747;SDS011;69232;47.488;19.268;2023-05-07T00:50:49;15.88;;;9.93;;
79747;SDS011;69232;47.488;19.268;2023-05-07T00:53:14;15.02;;;8.98;;
79747;SDS011;69232;47.488;19.268;2023-05-07T00:55:40;15.20;;;8.88;;
79747;SDS011;69232;47.488;19.268;2023-05-07T00:58:06;15.32;;;9.50;;
79747;SDS011;69232;47.488;19.268;2023-05-07T01:00:31;17.13;;;9.85;;
79747;SDS011;69232;47.488;19.268;2023-05-07T01:02:57;15.48;;;8.85;;
79747;SDS011;69232;47.488;19.268;2023-05-07T01:05:23;14.00;;;9.00;;
79747;SDS011;69232;47.488;19.268;2023-05-07T01:07:50;14.55;;;9.25;;
79747;SDS011;69232;47.488;19.268;2023-05-07T01:10:16;15.75;;;9.93;;
79747;SDS011;69232;47.488;19.268;2023-05-07T01:12:42;16.63;;;9.25;;
79747;SDS011;69232;47.488;19.268;2023-05-07T01:15:08;16.55;;;8.90;;
79747;SDS011;69232;47.488;19.268;2023-05-07T01:17:40;14.50;;;8.95;;
79747;SDS011;69232;47.488;19.268;2023-05-07T01:20:07;17.40;;;9.95;;
79747;SDS011;69232;47.488;19.268;2023-05-07T01:22:36;14.70;;;9.18;;
79747;SDS011;69232;47.488;19.268;2023-05-07T01:25:03;14.85;;;9.50;;
79747;SDS011;69232;47.488;19.268;2023-05-07T01:27:29;17.48;;;10.38;;
79747;SDS011;69232;47.488;19.268;2023-05-07T01:29:54;17.27;;;9.38;;
79747;SDS011;69232;47.488;19.268;2023-05-07T01:32:21;16.92;;;10.45;;
79747;SDS011;69232;47.488;19.268;2023-05-07T01:34:49;14.93;;;9.85;;
79747;SDS011;69232;47.488;19.268;2023-05-07T01:37:15;15.98;;;9.35;;
79747;SDS011;69232;47.488;19.268;2023-05-07T01:39:42;18.75;;;9.57;;
79747;SDS011;69232;47.488;19.268;2023-05-07T01:42:07;16.23;;;9.82;;
79747;SDS011;69232;47.488;19.268;2023-05-07T01:44:32;13.98;;;8.93;;
79747;SDS011;69232;47.488;19.268;2023-05-07T01:46:58;17.30;;;9.95;;
79747;SDS011;69232;47.488;19.268;2023-05-07T01:49:24;19.20;;;10.02;;
79747;SDS011;69232;47.488;19.268;2023-05-07T01:51:49;16.35;;;9.63;;
79747;SDS011;69232;47.488;19.268;2023-05-07T01:54:15;14.45;;;9.38;;
79747;SDS011;69232;47.488;19.268;2023-05-07T01:56:41;15.90;;;9.15;;
79747;SDS011;69232;47.488;19.268;2023-05-07T01:59:07;18.58;;;8.95;;
79747;SDS011;69232;47.488;19.268;2023-05-07T02:01:32;15.60;;;9.95;;
79747;SDS011;69232;47.488;19.268;2023-05-07T02:03:57;16.85;;;9.57;;
79747;SDS011;69232;47.488;19.268;2023-05-07T02:06:23;14.75;;;9.55;;
79747;SDS011;69232;47.488;19.268;2023-05-07T02:08:48;20.92;;;10.38;;
79747;SDS011;69232;47.488;19.268;2023-05-07T02:11:14;17.52;;;10.02;;
79747;SDS011;69232;47.488;19.268;2023-05-07T02:13:39;17.90;;;10.55;;
79747;SDS011;69232;47.488;19.268;2023-05-07T02:16:05;17.52;;;10.40;;
79747;SDS011;69232;47.488;19.268;2023-05-07T02:18:30;17.05;;;10.45;;
79747;SDS011;69232;47.488;19.268;2023-05-07T02:20:56;18.80;;;10.55;;
79747;SDS011;69232;47.488;19.268;2023-05-07T02:23:22;15.85;;;9.73;;
79747;SDS011;69232;47.488;19.268;2023-05-07T02:25:47;17.65;;;10.43;;
79747;SDS011;69232;47.488;19.268;2023-05-07T02:28:13;15.15;;;9.32;;
79747;SDS011;69232;47.488;19.268;2023-05-07T02:30:38;15.25;;;9.60;;
79747;SDS011;69232;47.488;19.268;2023-05-07T02:33:05;17.02;;;9.55;;
79747;SDS011;69232;47.488;19.268;2023-05-07T02:35:31;20.40;;;10.02;;
79747;SDS011;69232;47.488;19.268;2023-05-07T02:37:56;17.50;;;9.93;;
79747;SDS011;69232;47.488;19.268;2023-05-07T02:40:22;18.00;;;9.95;;
79747;SDS011;69232;47.488;19.268;2023-05-07T02:42:47;18.45;;;10.15;;
79747;SDS011;69232;47.488;19.268;2023-05-07T02:45:13;18.27;;;10.48;;
79747;SDS011;69232;47.488;19.268;2023-05-07T02:47:39;18.05;;;10.43;;
79747;SDS011;69232;47.488;19.268;2023-05-07T02:50:05;17.95;;;11.27;;
79747;SDS011;69232;47.488;19.268;2023-05-07T02:52:31;17.20;;;10.27;;
79747;SDS011;69232;47.488;19.268;2023-05-07T02:54:56;18.30;;;10.77;;
79747;SDS011;69232;47.488;19.268;2023-05-07T02:57:21;18.20;;;9.82;;
79747;SDS011;69232;47.488;19.268;2023-05-07T02:59:47;19.00;;;10.60;;
79747;SDS011;69232;47.488;19.268;2023-05-07T03:02:12;14.55;;;9.70;;
79747;SDS011;69232;47.488;19.268;2023-05-07T03:04:39;16.73;;;10.25;;
79747;SDS011;69232;47.488;19.268;2023-05-07T03:07:04;16.15;;;10.38;;
79747;SDS011;69232;47.488;19.268;2023-05-07T03:09:30;19.58;;;10.98;;
79747;SDS011;69232;47.488;19.268;2023-05-07T03:11:56;17.45;;;9.65;;
79747;SDS011;69232;47.488;19.268;2023-05-07T03:14:21;15.50;;;9.48;;
79747;SDS011;69232;47.488;19.268;2023-05-07T03:16:47;15.77;;;10.07;;
79747;SDS011;69232;47.488;19.268;2023-05-07T03:19:13;16.15;;;10.35;;
79747;SDS011;69232;47.488;19.268;2023-05-07T03:21:39;18.95;;;10.55;;
79747;SDS011;69232;47.488;19.268;2023-05-07T03:24:04;18.27;;;9.93;;
79747;SDS011;69232;47.488;19.268;2023-05-07T03:26:30;17.23;;;10.23;;
79747;SDS011;69232;47.488;19.268;2023-05-07T03:28:55;18.17;;;10.77;;
79747;SDS011;69232;47.488;19.268;2023-05-07T03:31:21;23.83;;;11.70;;
79747;SDS011;69232;47.488;19.268;2023-05-07T03:33:53;20.90;;;11.48;;
79747;SDS011;69232;47.488;19.268;2023-05-07T03:36:19;18.70;;;11.52;;
79747;SDS011;69232;47.488;19.268;2023-05-07T03:38:45;17.10;;;10.30;;
79747;SDS011;69232;47.488;19.268;2023-05-07T03:41:11;17.92;;;11.27;;
79747;SDS011;69232;47.488;19.268;2023-05-07T03:43:36;21.08;;;11.70;;
79747;SDS011;69232;47.488;19.268;2023-05-07T03:46:02;17.30;;;11.15;;
79747;SDS011;69232;47.488;19.268;2023-05-07T03:48:27;18.88;;;11.27;;
79747;SDS011;69232;47.488;19.268;2023-05-07T03:50:52;19.13;;;11.57;;
79747;SDS011;69232;47.488;19.268;2023-05-07T03:53:18;19.27;;;12.13;;
79747;SDS011;69232;47.488;19.268;2023-05-07T03:55:43;16.08;;;11.25;;
79747;SDS011;69232;47.488;19.268;2023-05-07T03:58:09;17.10;;;11.32;;
79747;SDS011;69232;47.488;19.268;2023-05-07T04:00:34;23.95;;;12.93;;
79747;SDS011;69232;47.488;19.268;2023-05-07T04:03:03;20.90;;;12.48;;
79747;SDS011;69232;47.488;19.268;2023-05-07T04:05:29;21.90;;;12.00;;
79747;SDS011;69232;47.488;19.268;2023-05-07T04:07:55;23.90;;;13.18;;
79747;SDS011;69232;47.488;19.268;2023-05-07T04:10:21;23.25;;;12.43;;
79747;SDS011;69232;47.488;19.268;2023-05-07T04:12:46;20.63;;;12.52;;
79747;SDS011;69232;47.488;19.268;2023-05-07T04:15:11;23.95;;;13.60;;
79747;SDS011;69232;47.488;19.268;2023-05-07T04:17:37;22.20;;;12.57;;
79747;SDS011;69232;47.488;19.268;2023-05-07T04:20:02;21.08;;;12.35;;
79747;SDS011;69232;47.488;19.268;2023-05-07T04:22:29;24.02;;;14.00;;
79747;SDS011;69232;47.488;19.268;2023-05-07T04:24:54;24.08;;;14.15;;
79747;SDS011;69232;47.488;19.268;2023-05-07T04:27:19;21.58;;;12.55;;
79747;SDS011;69232;47.488;19.268;2023-05-07T04:29:45;25.17;;;13.90;;
79747;SDS011;69232;47.488;19.268;2023-05-07T04:32:12;21.50;;;12.77;;
79747;SDS011;69232;47.488;19.268;2023-05-07T04:34:38;25.90;;;14.15;;
79747;SDS011;69232;47.488;19.268;2023-05-07T04:37:03;23.58;;;13.55;;
79747;SDS011;69232;47.488;19.268;2023-05-07T04:39:29;22.48;;;14.10;;
79747;SDS011;69232;47.488;19.268;2023-05-07T04:41:54;37.53;;;14.15;;
79747;SDS011;69232;47.488;19.268;2023-05-07T04:44:19;23.27;;;14.02;;
79747;SDS011;69232;47.488;19.268;2023-05-07T04:46:45;27.33;;;14.98;;
79747;SDS011;69232;47.488;19.268;2023-05-07T04:49:10;23.98;;;13.48;;
79747;SDS011;69232;47.488;19.268;2023-05-07T04:51:36;21.90;;;12.93;;
79747;SDS011;69232;47.488;19.268;2023-05-07T04:54:03;20.15;;;12.57;;
79747;SDS011;69232;47.488;19.268;2023-05-07T04:56:28;20.58;;;11.98;;
79747;SDS011;69232;47.488;19.268;2023-05-07T04:58:55;19.40;;;11.90;;
79747;SDS011;69232;47.488;19.268;2023-05-07T05:01:20;20.55;;;12.25;;
79747;SDS011;69232;47.488;19.268;2023-05-07T05:03:46;19.17;;;12.30;;
79747;SDS011;69232;47.488;19.268;2023-05-07T05:06:11;20.90;;;11.50;;
79747;SDS011;69232;47.488;19.268;2023-05-07T05:08:36;26.05;;;13.02;;
79747;SDS011;69232;47.488;19.268;2023-05-07T05:11:02;19.85;;;12.25;;
79747;SDS011;69232;47.488;19.268;2023-05-07T05:13:27;24.42;;;12.38;;
79747;SDS011;69232;47.488;19.268;2023-05-07T05:15:53;21.50;;;12.70;;
79747;SDS011;69232;47.488;19.268;2023-05-07T05:18:18;20.42;;;11.15;;
79747;SDS011;69232;47.488;19.268;2023-05-07T05:20:44;20.77;;;12.93;;
79747;SDS011;69232;47.488;19.268;2023-05-07T05:23:09;20.52;;;12.48;;
79747;SDS011;69232;47.488;19.268;2023-05-07T05:25:35;20.42;;;12.27;;
79747;SDS011;69232;47.488;19.268;2023-05-07T05:28:00;25.50;;;14.10;;
79747;SDS011;69232;47.488;19.268;2023-05-07T05:30:26;25.73;;;13.73;;
79747;SDS011;69232;47.488;19.268;2023-05-07T05:32:51;25.98;;;14.05;;
79747;SDS011;69232;47.488;19.268;2023-05-07T05:35:17;26.85;;;14.57;;
79747;SDS011;69232;47.488;19.268;2023-05-07T05:37:42;27.35;;;15.80;;
79747;SDS011;69232;47.488;19.268;2023-05-07T05:40:08;26.52;;;14.45;;
79747;SDS011;69232;47.488;19.268;2023-05-07T05:42:33;23.67;;;13.13;;
79747;SDS011;69232;47.488;19.268;2023-05-07T05:44:58;24.98;;;15.05;;
79747;SDS011;69232;47.488;19.268;2023-05-07T05:47:24;24.15;;;13.95;;
79747;SDS011;69232;47.488;19.268;2023-05-07T05:49:49;29.65;;;16.02;;
79747;SDS011;69232;47.488;19.268;2023-05-07T05:52:15;30.67;;;16.58;;
79747;SDS011;69232;47.488;19.268;2023-05-07T05:54:41;28.80;;;18.02;;
79747;SDS011;69232;47.488;19.268;2023-05-07T05:57:07;27.75;;;16.17;;
79747;SDS011;69232;47.488;19.268;2023-05-07T05:59:32;33.67;;;16.08;;
79747;SDS011;69232;47.488;19.268;2023-05-07T06:01:57;23.75;;;14.50;;
79747;SDS011;69232;47.488;19.268;2023-05-07T06:04:23;20.83;;;12.85;;
79747;SDS011;69232;47.488;19.268;2023-05-07T06:06:48;19.15;;;11.13;;
79747;SDS011;69232;47.488;19.268;2023-05-07T06:09:14;20.13;;;12.45;;
79747;SDS011;69232;47.488;19.268;2023-05-07T06:11:39;20.35;;;10.82;;
79747;SDS011;69232;47.488;19.268;2023-05-07T06:14:06;20.33;;;10.45;;
79747;SDS011;69232;47.488;19.268;2023-05-07T06:16:31;18.77;;;11.25;;
79747;SDS011;69232;47.488;19.268;2023-05-07T06:18:56;20.17;;;10.80;;
79747;SDS011;69232;47.488;19.268;2023-05-07T06:21:22;18.80;;;10.38;;
79747;SDS011;69232;47.488;19.268;2023-05-07T06:23:47;16.63;;;9.60;;
79747;SDS011;69232;47.488;19.268;2023-05-07T06:26:12;18.40;;;10.23;;
79747;SDS011;69232;47.488;19.268;2023-05-07T06:28:38;13.65;;;7.38;;
79747;SDS011;69232;47.488;19.268;2023-05-07T06:31:16;15.10;;;7.88;;
79747;SDS011;69232;47.488;19.268;2023-05-07T06:33:45;12.85;;;8.07;;
79747;SDS011;69232;47.488;19.268;2023-05-07T06:36:11;11.60;;;6.55;;
79747;SDS011;69232;47.488;19.268;2023-05-07T06:38:36;14.68;;;8.57;;
79747;SDS011;69232;47.488;19.268;2023-05-07T06:41:02;13.85;;;7.53;;
79747;SDS011;69232;47.488;19.268;2023-05-07T06:43:27;12.27;;;7.68;;
79747;SDS011;69232;47.488;19.268;2023-05-07T06:45:52;11.38;;;5.95;;
79747;SDS011;69232;47.488;19.268;2023-05-07T06:48:18;9.57;;;5.82;;
79747;SDS011;69232;47.488;19.268;2023-05-07T06:50:43;9.48;;;5.40;;
79747;SDS011;69232;47.488;19.268;2023-05-07T06:53:09;11.30;;;6.93;;
79747;SDS011;69232;47.488;19.268;2023-05-07T06:55:34;16.48;;;8.93;;
79747;SDS011;69232;47.488;19.268;2023-05-07T06:57:59;13.27;;;8.02;;
79747;SDS011;69232;47.488;19.268;2023-05-07T07:00:28;11.95;;;7.55;;
79747;SDS011;69232;47.488;19.268;2023-05-07T07:02:54;13.38;;;9.40;;
79747;SDS011;69232;47.488;19.268;2023-05-07T07:05:20;11.07;;;6.93;;
79747;SDS011;69232;47.488;19.268;2023-05-07T07:07:46;11.02;;;6.55;;
79747;SDS011;69232;47.488;19.268;2023-05-07T07:10:17;8.52;;;5.18;;
79747;SDS011;69232;47.488;19.268;2023-05-07T07:12:49;10.70;;;6.55;;
79747;SDS011;69232;47.488;19.268;2023-05-07T07:15:15;11.63;;;7.30;;
79747;SDS011;69232;47.488;19.268;2023-05-07T07:17:40;9.52;;;5.75;;
79747;SDS011;69232;47.488;19.268;2023-05-07T07:20:06;7.75;;;4.95;;
79747;SDS011;69232;47.488;19.268;2023-05-07T07:22:32;12.77;;;6.65;;
79747;SDS011;69232;47.488;19.268;2023-05-07T07:24:57;8.88;;;4.88;;
79747;SDS011;69232;47.488;19.268;2023-05-07T07:27:23;8.63;;;5.72;;
79747;SDS011;69232;47.488;19.268;2023-05-07T07:29:48;13.45;;;6.13;;
79747;SDS011;69232;47.488;19.268;2023-05-07T07:32:13;7.25;;;5.22;;
79747;SDS011;69232;47.488;19.268;2023-05-07T07:34:39;5.20;;;3.92;;
79747;SDS011;69232;47.488;19.268;2023-05-07T07:37:04;5.88;;;3.75;;
79747;SDS011;69232;47.488;19.268;2023-05-07T07:39:34;4.63;;;3.53;;
79747;SDS011;69232;47.488;19.268;2023-05-07T07:41:59;5.25;;;3.17;;
79747;SDS011;69232;47.488;19.268;2023-05-07T07:44:25;3.50;;;3.00;;
79747;SDS011;69232;47.488;19.268;2023-05-07T07:46:53;4.32;;;2.92;;
79747;SDS011;69232;47.488;19.268;2023-05-07T07:49:18;4.40;;;3.22;;
79747;SDS011;69232;47.488;19.268;2023-05-07T07:51:44;6.65;;;4.45;;
79747;SDS011;69232;47.488;19.268;2023-05-07T07:54:09;4.43;;;3.17;;
79747;SDS011;69232;47.488;19.268;2023-05-07T07:56:35;6.20;;;3.17;;
79747;SDS011;69232;47.488;19.268;2023-05-07T07:59:00;5.13;;;3.33;;
79747;SDS011;69232;47.488;19.268;2023-05-07T08:01:26;6.25;;;3.85;;
79747;SDS011;69232;47.488;19.268;2023-05-07T08:03:52;4.32;;;3.08;;
79747;SDS011;69232;47.488;19.268;2023-05-07T08:06:17;5.47;;;3.42;;
79747;SDS011;69232;47.488;19.268;2023-05-07T08:08:43;6.43;;;3.28;;
79747;SDS011;69232;47.488;19.268;2023-05-07T08:11:09;4.63;;;3.08;;
79747;SDS011;69232;47.488;19.268;2023-05-07T08:13:35;4.55;;;3.28;;
79747;SDS011;69232;47.488;19.268;2023-05-07T08:16:01;4.93;;;3.47;;
79747;SDS011;69232;47.488;19.268;2023-05-07T08:18:26;5.43;;;3.22;;
79747;SDS011;69232;47.488;19.268;2023-05-07T08:20:54;3.70;;;2.50;;
79747;SDS011;69232;47.488;19.268;2023-05-07T08:23:19;7.13;;;3.58;;
79747;SDS011;69232;47.488;19.268;2023-05-07T08:25:45;4.38;;;2.97;;
79747;SDS011;69232;47.488;19.268;2023-05-07T08:28:10;4.13;;;2.85;;
79747;SDS011;69232;47.488;19.268;2023-05-07T08:30:36;5.63;;;2.83;;
79747;SDS011;69232;47.488;19.268;2023-05-07T08:33:01;2.92;;;2.63;;
79747;SDS011;69232;47.488;19.268;2023-05-07T08:35:27;2.88;;;2.40;;
79747;SDS011;69232;47.488;19.268;2023-05-07T08:37:53;5.05;;;2.60;;
79747;SDS011;69232;47.488;19.268;2023-05-07T08:40:18;5.80;;;2.35;;
79747;SDS011;69232;47.488;19.268;2023-05-07T08:42:44;4.15;;;2.72;;
79747;SDS011;69232;47.488;19.268;2023-05-07T08:45:10;4.90;;;2.47;;
79747;SDS011;69232;47.488;19.268;2023-05-07T08:47:40;3.83;;;2.80;;
79747;SDS011;69232;47.488;19.268;2023-05-07T08:50:10;4.07;;;1.95;;
79747;SDS011;69232;47.488;19.268;2023-05-07T08:52:36;3.63;;;2.40;;
79747;SDS011;69232;47.488;19.268;2023-05-07T08:55:02;3.90;;;2.58;;
79747;SDS011;69232;47.488;19.268;2023-05-07T08:57:28;2.88;;;2.47;;
79747;SDS011;69232;47.488;19.268;2023-05-07T08:59:53;4.07;;;2.55;;
79747;SDS011;69232;47.488;19.268;2023-05-07T09:02:19;3.53;;;2.63;;
79747;SDS011;69232;47.488;19.268;2023-05-07T09:04:44;5.47;;;2.70;;
79747;SDS011;69232;47.488;19.268;2023-05-07T09:07:09;5.03;;;2.70;;
79747;SDS011;69232;47.488;19.268;2023-05-07T09:09:35;5.13;;;2.70;;
79747;SDS011;69232;47.488;19.268;2023-05-07T09:12:00;4.22;;;2.50;;
79747;SDS011;69232;47.488;19.268;2023-05-07T09:14:27;2.85;;;2.30;;
79747;SDS011;69232;47.488;19.268;2023-05-07T09:16:53;4.57;;;2.13;;
79747;SDS011;69232;47.488;19.268;2023-05-07T09:19:22;3.15;;;2.33;;
79747;SDS011;69232;47.488;19.268;2023-05-07T09:21:49;5.00;;;2.53;;
79747;SDS011;69232;47.488;19.268;2023-05-07T09:24:17;4.38;;;2.65;;
79747;SDS011;69232;47.488;19.268;2023-05-07T09:26:42;4.35;;;2.45;;
79747;SDS011;69232;47.488;19.268;2023-05-07T09:29:08;5.47;;;2.58;;
79747;SDS011;69232;47.488;19.268;2023-05-07T09:31:38;4.28;;;1.92;;
79747;SDS011;69232;47.488;19.268;2023-05-07T09:34:07;2.38;;;1.83;;
79747;SDS011;69232;47.488;19.268;2023-05-07T09:36:32;5.25;;;2.78;;
79747;SDS011;69232;47.488;19.268;2023-05-07T09:39:01;4.68;;;2.65;;
79747;SDS011;69232;47.488;19.268;2023-05-07T09:41:26;4.88;;;2.30;;
79747;SDS011;69232;47.488;19.268;2023-05-07T09:43:53;5.30;;;2.97;;
79747;SDS011;69232;47.488;19.268;2023-05-07T09:46:19;2.85;;;2.40;;
79747;SDS011;69232;47.488;19.268;2023-05-07T09:48:50;3.13;;;2.35;;
79747;SDS011;69232;47.488;19.268;2023-05-07T09:54:24;4.07;;;3.33;;
79747;SDS011;69232;47.488;19.268;2023-05-07T09:56:49;3.53;;;2.20;;
79747;SDS011;69232;47.488;19.268;2023-05-07T09:59:17;4.30;;;2.20;;
79747;SDS011;69232;47.488;19.268;2023-05-07T10:01:43;3.42;;;2.30;;
79747;SDS011;69232;47.488;19.268;2023-05-07T10:04:09;2.83;;;2.13;;
79747;SDS011;69232;47.488;19.268;2023-05-07T10:06:35;3.08;;;1.90;;
79747;SDS011;69232;47.488;19.268;2023-05-07T10:09:01;2.70;;;2.25;;
79747;SDS011;69232;47.488;19.268;2023-05-07T10:11:27;4.10;;;2.10;;
79747;SDS011;69232;47.488;19.268;2023-05-07T10:13:53;2.55;;;2.35;;
79747;SDS011;69232;47.488;19.268;2023-05-07T10:16:19;3.38;;;2.53;;
79747;SDS011;69232;47.488;19.268;2023-05-07T10:18:46;3.85;;;1.90;;
79747;SDS011;69232;47.488;19.268;2023-05-07T10:21:19;4.07;;;2.00;;
79747;SDS011;69232;47.488;19.268;2023-05-07T10:23:48;4.50;;;2.15;;
79747;SDS011;69232;47.488;19.268;2023-05-07T10:26:15;3.67;;;1.90;;
79747;SDS011;69232;47.488;19.268;2023-05-07T10:28:43;2.38;;;1.90;;
79747;SDS011;69232;47.488;19.268;2023-05-07T10:33:40;1.67;;;1.42;;
79747;SDS011;69232;47.488;19.268;2023-05-07T10:36:07;3.10;;;1.95;;
79747;SDS011;69232;47.488;19.268;2023-05-07T10:38:33;2.10;;;1.70;;
79747;SDS011;69232;47.488;19.268;2023-05-07T10:40:58;3.50;;;2.10;;
79747;SDS011;69232;47.488;19.268;2023-05-07T10:43:24;2.55;;;2.20;;
79747;SDS011;69232;47.488;19.268;2023-05-07T10:51:33;4.32;;;2.22;;
79747;SDS011;69232;47.488;19.268;2023-05-07T10:56:34;2.20;;;2.00;;
79747;SDS011;69232;47.488;19.268;2023-05-07T11:01:50;3.53;;;2.03;;
79747;SDS011;69232;47.488;19.268;2023-05-07T11:04:18;2.67;;;2.10;;
79747;SDS011;69232;47.488;19.268;2023-05-07T11:15:08;4.35;;;3.20;;
79747;SDS011;69232;47.488;19.268;2023-05-07T11:17:51;3.83;;;2.72;;
79747;SDS011;69232;47.488;19.268;2023-05-07T11:20:20;4.72;;;2.42;;
79747;SDS011;69232;47.488;19.268;2023-05-07T11:22:46;3.53;;;2.45;;
79747;SDS011;69232;47.488;19.268;2023-05-07T11:25:17;6.00;;;2.22;;
79747;SDS011;69232;47.488;19.268;2023-05-07T11:27:44;4.57;;;2.70;;
79747;SDS011;69232;47.488;19.268;2023-05-07T11:30:10;2.53;;;2.03;;
79747;SDS011;69232;47.488;19.268;2023-05-07T11:32:42;4.20;;;2.47;;
79747;SDS011;69232;47.488;19.268;2023-05-07T11:35:07;3.00;;;2.22;;
79747;SDS011;69232;47.488;19.268;2023-05-07T11:37:33;4.68;;;2.65;;
79747;SDS011;69232;47.488;19.268;2023-05-07T11:40:02;2.60;;;2.13;;
79747;SDS011;69232;47.488;19.268;2023-05-07T11:42:33;3.78;;;2.42;;
79747;SDS011;69232;47.488;19.268;2023-05-07T11:44:59;4.22;;;2.58;;
79747;SDS011;69232;47.488;19.268;2023-05-07T11:47:25;3.00;;;2.40;;
79747;SDS011;69232;47.488;19.268;2023-05-07T11:49:52;2.80;;;2.30;;
79747;SDS011;69232;47.488;19.268;2023-05-07T11:52:19;4.55;;;2.45;;
79747;SDS011;69232;47.488;19.268;2023-05-07T11:54:55;2.75;;;2.47;;
79747;SDS011;69232;47.488;19.268;2023-05-07T11:57:30;3.90;;;2.65;;
79747;SDS011;69232;47.488;19.268;2023-05-07T12:00:15;3.95;;;2.83;;
79747;SDS011;69232;47.488;19.268;2023-05-07T12:02:41;3.83;;;2.92;;
79747;SDS011;69232;47.488;19.268;2023-05-07T12:05:07;2.83;;;2.53;;
79747;SDS011;69232;47.488;19.268;2023-05-07T12:07:35;4.32;;;2.85;;
79747;SDS011;69232;47.488;19.268;2023-05-07T12:10:04;5.50;;;2.60;;
79747;SDS011;69232;47.488;19.268;2023-05-07T12:12:31;3.13;;;2.08;;
79747;SDS011;69232;47.488;19.268;2023-05-07T12:14:56;5.75;;;2.20;;
79747;SDS011;69232;47.488;19.268;2023-05-07T12:17:21;3.40;;;1.98;;
79747;SDS011;69232;47.488;19.268;2023-05-07T12:19:47;2.88;;;1.90;;
79747;SDS011;69232;47.488;19.268;2023-05-07T12:22:12;2.38;;;2.05;;
79747;SDS011;69232;47.488;19.268;2023-05-07T12:24:42;3.50;;;2.30;;
79747;SDS011;69232;47.488;19.268;2023-05-07T12:27:12;2.42;;;2.05;;
79747;SDS011;69232;47.488;19.268;2023-05-07T12:29:38;2.67;;;2.10;;
79747;SDS011;69232;47.488;19.268;2023-05-07T12:32:05;2.20;;;1.90;;
79747;SDS011;69232;47.488;19.268;2023-05-07T12:34:31;4.47;;;1.80;;
79747;SDS011;69232;47.488;19.268;2023-05-07T12:36:57;3.50;;;2.03;;
79747;SDS011;69232;47.488;19.268;2023-05-07T12:39:22;2.97;;;2.20;;
79747;SDS011;69232;47.488;19.268;2023-05-07T12:41:55;4.25;;;2.38;;
79747;SDS011;69232;47.488;19.268;2023-05-07T12:44:22;6.32;;;2.55;;
79747;SDS011;69232;47.488;19.268;2023-05-07T12:46:48;7.65;;;3.33;;
79747;SDS011;69232;47.488;19.268;2023-05-07T12:49:14;6.10;;;3.20;;
79747;SDS011;69232;47.488;19.268;2023-05-07T12:51:40;9.23;;;4.45;;
79747;SDS011;69232;47.488;19.268;2023-05-07T12:54:05;4.78;;;2.63;;
79747;SDS011;69232;47.488;19.268;2023-05-07T12:56:31;6.03;;;3.20;;
79747;SDS011;69232;47.488;19.268;2023-05-07T12:58:57;7.35;;;3.20;;
79747;SDS011;69232;47.488;19.268;2023-05-07T13:01:28;4.55;;;2.50;;
79747;SDS011;69232;47.488;19.268;2023-05-07T13:03:54;3.95;;;2.63;;
79747;SDS011;69232;47.488;19.268;2023-05-07T13:06:19;3.75;;;2.67;;
79747;SDS011;69232;47.488;19.268;2023-05-07T13:08:44;5.45;;;3.47;;
79747;SDS011;69232;47.488;19.268;2023-05-07T13:11:11;3.85;;;2.58;;
79747;SDS011;69232;47.488;19.268;2023-05-07T13:13:37;3.15;;;2.47;;
79747;SDS011;69232;47.488;19.268;2023-05-07T13:16:06;4.55;;;3.20;;
79747;SDS011;69232;47.488;19.268;2023-05-07T13:18:33;3.15;;;2.53;;
79747;SDS011;69232;47.488;19.268;2023-05-07T13:20:59;5.20;;;2.45;;
79747;SDS011;69232;47.488;19.268;2023-05-07T13:23:25;4.10;;;2.85;;
79747;SDS011;69232;47.488;19.268;2023-05-07T13:25:50;2.72;;;2.30;;
79747;SDS011;69232;47.488;19.268;2023-05-07T13:28:18;8.07;;;2.83;;
79747;SDS011;69232;47.488;19.268;2023-05-07T13:30:45;4.03;;;3.03;;
79747;SDS011;69232;47.488;19.268;2023-05-07T13:33:11;4.88;;;3.13;;
79747;SDS011;69232;47.488;19.268;2023-05-07T13:35:36;3.65;;;2.33;;
79747;SDS011;69232;47.488;19.268;2023-05-07T13:38:02;4.28;;;2.40;;
79747;SDS011;69232;47.488;19.268;2023-05-07T13:40:28;2.97;;;2.50;;
79747;SDS011;69232;47.488;19.268;2023-05-07T13:42:53;2.90;;;2.45;;
79747;SDS011;69232;47.488;19.268;2023-05-07T13:45:21;2.55;;;2.10;;
79747;SDS011;69232;47.488;19.268;2023-05-07T13:47:50;6.93;;;2.80;;
79747;SDS011;69232;47.488;19.268;2023-05-07T13:50:16;4.20;;;2.83;;
79747;SDS011;69232;47.488;19.268;2023-05-07T13:52:42;8.18;;;3.75;;
79747;SDS011;69232;47.488;19.268;2023-05-07T13:55:08;6.75;;;3.90;;
79747;SDS011;69232;47.488;19.268;2023-05-07T13:57:35;4.95;;;2.80;;
79747;SDS011;69232;47.488;19.268;2023-05-07T14:00:01;10.68;;;5.57;;
79747;SDS011;69232;47.488;19.268;2023-05-07T14:02:27;4.30;;;2.28;;
79747;SDS011;69232;47.488;19.268;2023-05-07T14:04:52;2.95;;;2.42;;
79747;SDS011;69232;47.488;19.268;2023-05-07T14:07:18;2.55;;;2.13;;
79747;SDS011;69232;47.488;19.268;2023-05-07T14:09:43;4.15;;;2.00;;
79747;SDS011;69232;47.488;19.268;2023-05-07T15:49:57;4.35;;;3.35;;
79747;SDS011;69232;47.488;19.268;2023-05-07T15:52:23;3.42;;;3.00;;
79747;SDS011;69232;47.488;19.268;2023-05-07T15:54:48;6.05;;;3.15;;
79747;SDS011;69232;47.488;19.268;2023-05-07T15:57:13;3.70;;;2.85;;
79747;SDS011;69232;47.488;19.268;2023-05-07T15:59:39;3.88;;;2.58;;
79747;SDS011;69232;47.488;19.268;2023-05-07T16:02:05;3.85;;;3.22;;
79747;SDS011;69232;47.488;19.268;2023-05-07T16:04:32;4.70;;;2.67;;
79747;SDS011;69232;47.488;19.268;2023-05-07T16:06:57;4.80;;;3.58;;
79747;SDS011;69232;47.488;19.268;2023-05-07T16:09:22;5.82;;;3.50;;
79747;SDS011;69232;47.488;19.268;2023-05-07T16:11:49;8.95;;;2.92;;
79747;SDS011;69232;47.488;19.268;2023-05-07T16:14:15;3.10;;;2.60;;
79747;SDS011;69232;47.488;19.268;2023-05-07T16:16:40;4.85;;;3.22;;
79747;SDS011;69232;47.488;19.268;2023-05-07T16:19:06;3.38;;;2.80;;
79747;SDS011;69232;47.488;19.268;2023-05-07T16:21:31;5.25;;;2.83;;